Time;durP1;ratioP1;P1;durP2;ratioP2;P2;SDS_P1;SDS_P2;PMS_P1;PMS_P2;Temp;Humidity;BMP_temperature;BMP_pressure;BME280_temperature;BME280_humidity;BME280_pressure;Samples;Min_cycle;Max_cycle;Signal;HPM_P1;HPM_P2
2021/08/18 00:02:04;;;;;;;42.10;28.75;;;;;;;21.31;58.86;99754.52;1732438;82;21523;-72
2021/08/18 00:04:31;;;;;;;40.60;27.95;;;;;;;21.24;59.14;99755.03;1727294;80;21812;-72
2021/08/18 00:06:57;;;;;;;46.53;28.05;;;;;;;21.15;59.49;99759.25;1732530;82;20938;-72
2021/08/18 00:09:24;;;;;;;41.88;27.73;;;;;;;21.10;59.57;99768.42;1739736;81;21519;-73
2021/08/18 00:11:52;;;;;;;42.67;27.90;;;;;;;21.08;59.58;99773.70;1735455;81;21296;-72
2021/08/18 00:14:20;;;;;;;50.35;28.83;;;;;;;21.08;59.61;99775.86;1730224;81;20981;-73
2021/08/18 00:16:46;;;;;;;48.60;28.75;;;;;;;21.08;59.53;99772.35;1733433;81;22237;-72
2021/08/18 00:19:13;;;;;;;44.13;29.67;;;;;;;21.09;59.68;99763.27;1734967;81;21014;-72
2021/08/18 00:21:41;;;;;;;42.98;28.77;;;;;;;21.10;59.58;99763.05;1711360;82;20948;-73
2021/08/18 00:24:07;;;;;;;41.88;28.45;;;;;;;21.13;59.67;99760.47;1735129;81;21058;-72
2021/08/18 00:26:33;;;;;;;43.30;27.80;;;;;;;21.11;59.78;99763.36;1729069;81;21003;-72
2021/08/18 00:29:03;;;;;;;39.98;28.52;;;;;;;21.07;60.03;99762.13;1759208;81;22622;-72
2021/08/18 00:31:30;;;;;;;39.70;27.58;;;;;;;21.01;60.19;99760.25;1728956;81;21053;-72
2021/08/18 00:33:56;;;;;;;41.28;27.85;;;;;;;20.95;60.32;99760.26;1691967;82;21171;-72
2021/08/18 00:36:25;;;;;;;43.58;27.67;;;;;;;20.89;60.71;99761.89;1731944;82;21010;-72
2021/08/18 00:38:51;;;;;;;45.30;29.75;;;;;;;20.85;60.83;99764.68;1724377;82;21018;-72
2021/08/18 00:41:20;;;;;;;49.38;29.42;;;;;;;20.82;60.81;99767.23;1704228;82;22283;-72
2021/08/18 00:43:50;;;;;;;44.75;28.57;;;;;;;20.80;60.95;99753.71;1720148;82;21454;-72
2021/08/18 00:46:17;;;;;;;51.23;29.90;;;;;;;20.77;61.19;99744.22;1725083;81;20973;-72
2021/08/18 00:48:45;;;;;;;41.33;28.85;;;;;;;20.78;61.26;99743.19;1739053;82;21018;-72
2021/08/18 00:51:12;;;;;;;41.35;28.75;;;;;;;20.78;61.27;99742.36;1730311;82;21603;-72
2021/08/18 00:53:40;;;;;;;44.45;28.42;;;;;;;20.73;61.27;99742.13;1712062;82;21849;-72
2021/08/18 00:56:10;;;;;;;45.80;29.72;;;;;;;20.67;61.38;99740.27;1729106;82;20967;-72
2021/08/18 00:58:36;;;;;;;53.98;32.28;;;;;;;20.62;61.38;99743.55;1728686;82;21413;-72
2021/08/18 01:01:02;;;;;;;51.80;31.85;;;;;;;20.60;61.31;99750.16;1733648;81;21520;-72
2021/08/18 01:03:30;;;;;;;46.05;32.78;;;;;;;20.63;61.25;99754.59;1735413;81;21396;-73
2021/08/18 01:05:58;;;;;;;55.43;32.28;;;;;;;20.63;61.16;99744.38;1732602;81;21433;-72
2021/08/18 01:08:25;;;;;;;48.87;31.90;;;;;;;20.63;61.30;99743.03;1736030;81;20909;-74
2021/08/18 01:10:53;;;;;;;51.75;32.45;;;;;;;20.64;61.31;99742.82;1731835;81;21068;-72
2021/08/18 01:13:20;;;;;;;47.98;32.00;;;;;;;20.64;61.46;99743.34;1676927;83;22199;-72
2021/08/18 01:15:47;;;;;;;46.85;31.70;;;;;;;20.58;61.60;99740.45;1724611;82;20948;-72
2021/08/18 01:18:15;;;;;;;46.60;31.33;;;;;;;20.50;61.65;99742.48;1680178;84;21500;-72
2021/08/18 01:20:42;;;;;;;44.60;31.12;;;;;;;20.42;61.84;99734.06;1698631;82;21062;-72
2021/08/18 01:23:13;;;;;;;44.73;30.45;;;;;;;20.37;62.07;99734.37;1689975;82;20968;-73
2021/08/18 01:25:43;;;;;;;52.00;33.67;;;;;;;20.32;62.24;99731.45;1685367;84;21035;-70
2021/08/18 01:28:10;;;;;;;50.25;33.85;;;;;;;20.27;62.25;99740.94;1697563;84;20960;-69
2021/08/18 01:30:37;;;;;;;48.38;31.82;;;;;;;20.22;62.25;99743.38;1704684;82;21833;-70
2021/08/18 01:33:12;;;;;;;47.13;32.13;;;;;;;20.17;62.57;99743.64;1681946;84;20946;-70
2021/08/18 01:35:41;;;;;;;48.55;32.70;;;;;;;20.14;62.76;99740.03;1680468;84;20966;-71
2021/08/18 01:38:10;;;;;;;51.58;32.67;;;;;;;20.13;62.85;99735.19;1682046;82;21059;-72
2021/08/18 01:40:37;;;;;;;48.00;32.28;;;;;;;20.12;63.02;99738.07;1691397;82;21024;-71
2021/08/18 01:43:05;;;;;;;50.85;33.30;;;;;;;20.07;63.10;99737.31;1706843;82;20977;-71
2021/08/18 01:45:36;;;;;;;47.10;33.13;;;;;;;20.05;63.11;99735.34;1701624;82;20977;-75
2021/08/18 01:48:07;;;;;;;51.28;34.18;;;;;;;20.01;63.21;99737.61;1681896;82;21475;-71
2021/08/18 01:50:35;;;;;;;59.15;35.60;;;;;;;19.96;63.29;99744.06;1733110;82;21484;-71
2021/08/18 01:53:02;;;;;;;53.90;35.73;;;;;;;19.95;63.20;99771.06;1718434;81;21521;-71
2021/08/18 01:55:30;;;;;;;55.50;36.35;;;;;;;19.96;63.08;99780.25;1680628;83;20958;-72
2021/08/18 01:57:58;;;;;;;57.88;35.55;;;;;;;19.96;62.94;99772.20;1706175;82;20941;-71
2021/08/18 02:00:24;;;;;;;52.38;34.63;;;;;;;19.98;62.88;99758.12;1701015;82;21044;-72
2021/08/18 02:02:50;;;;;;;53.02;35.95;;;;;;;20.01;62.75;99768.44;1721013;82;21019;-71
2021/08/18 02:05:19;;;;;;;56.02;34.85;;;;;;;20.01;62.69;99768.95;1678312;84;21421;-71
2021/08/18 02:07:46;;;;;;;54.03;36.50;;;;;;;20.02;62.57;99765.23;1680575;83;21843;-71
2021/08/18 02:10:14;;;;;;;52.25;35.30;;;;;;;20.03;62.50;99770.09;1674552;84;21137;-72
2021/08/18 02:12:41;;;;;;;49.48;35.15;;;;;;;20.03;62.54;99776.79;1718361;81;20961;-72
2021/08/18 02:15:12;;;;;;;54.20;35.50;;;;;;;19.99;62.40;99773.69;1715305;82;20969;-71
2021/08/18 02:17:40;;;;;;;52.63;35.53;;;;;;;19.94;62.64;99772.92;1709145;82;20942;-72
2021/08/18 02:20:10;;;;;;;51.28;36.10;;;;;;;19.90;62.87;99767.66;1726672;81;21794;-71
2021/08/18 02:22:36;;;;;;;49.50;35.70;;;;;;;19.90;62.98;99772.19;1750951;80;21358;-71
2021/08/18 02:25:05;;;;;;;50.43;36.03;;;;;;;19.87;63.04;99766.69;1734227;80;21620;-72
2021/08/18 02:27:33;;;;;;;56.13;36.70;;;;;;;19.87;63.32;99768.53;1727741;81;20992;-71
2021/08/18 02:29:59;;;;;;;56.00;35.98;;;;;;;19.89;63.39;99761.98;1723437;82;20858;-70
2021/08/18 02:32:26;;;;;;;49.88;34.55;;;;;;;19.91;63.62;99762.61;1739932;80;22447;-72
2021/08/18 02:34:52;;;;;;;56.60;36.20;;;;;;;19.93;63.69;99757.87;1734180;80;20930;-72
2021/08/18 02:37:19;;;;;;;48.92;34.50;;;;;;;19.93;63.70;99755.70;1730984;82;20957;-72
2021/08/18 02:39:45;;;;;;;54.23;36.58;;;;;;;19.90;63.74;99771.67;1730412;81;21525;-72
2021/08/18 02:42:11;;;;;;;45.88;30.82;;;;;;;19.83;63.71;99782.86;1721995;80;21579;-71
2021/08/18 02:44:38;;;;;;;53.90;32.15;;;;;;;19.78;63.77;99755.80;1741790;81;21720;-72
2021/08/18 02:47:06;;;;;;;33.38;23.87;;;;;;;19.77;64.05;99783.62;1718872;82;20997;-71
2021/08/18 02:49:33;;;;;;;37.17;20.80;;;;;;;19.78;64.31;99788.47;1733762;82;21057;-72
2021/08/18 02:51:59;;;;;;;28.92;19.73;;;;;;;19.87;64.61;99785.45;1713399;82;21010;-72
2021/08/18 02:54:25;;;;;;;28.23;18.40;;;;;;;19.97;64.75;99790.45;1723448;82;20947;-72
2021/08/18 02:56:54;;;;;;;31.75;17.23;;;;;;;20.06;64.98;99793.30;1726887;82;21864;-72
2021/08/18 02:59:20;;;;;;;33.90;17.37;;;;;;;20.13;65.17;99790.15;1723119;82;20942;-72
2021/08/18 03:01:49;;;;;;;24.18;16.40;;;;;;;20.16;65.33;99787.06;1708505;82;21005;-74
2021/08/18 03:04:16;;;;;;;25.52;15.78;;;;;;;20.19;65.27;99784.00;1729058;81;21102;-72
2021/08/18 03:06:42;;;;;;;24.72;15.63;;;;;;;20.20;65.36;99787.00;1729688;82;21089;-71
2021/08/18 03:09:08;;;;;;;28.23;15.18;;;;;;;20.21;65.55;99786.48;1731302;82;21779;-72
2021/08/18 03:11:37;;;;;;;21.52;14.58;;;;;;;20.21;65.76;99783.80;1729199;82;21374;-71
2021/08/18 03:14:05;;;;;;;27.22;14.90;;;;;;;20.22;65.88;99790.81;1731387;81;20989;-72
2021/08/18 03:16:33;;;;;;;24.30;15.75;;;;;;;20.24;66.04;99784.73;1734066;81;21489;-71
2021/08/18 03:19:00;;;;;;;29.65;14.85;;;;;;;20.25;66.10;99783.70;1729666;81;20957;-72
2021/08/18 03:21:27;;;;;;;23.75;14.10;;;;;;;20.29;66.11;99791.17;1722862;81;22179;-71
2021/08/18 03:23:53;;;;;;;23.00;13.20;;;;;;;20.34;66.21;99793.24;1736447;81;21090;-72
2021/08/18 03:26:22;;;;;;;29.92;13.75;;;;;;;20.37;66.30;99792.87;1728317;82;21048;-72
2021/08/18 03:28:50;;;;;;;23.15;13.38;;;;;;;20.39;66.40;99799.36;1717959;82;21532;-72
2021/08/18 03:31:18;;;;;;;20.55;13.10;;;;;;;20.43;66.51;99799.30;1722960;82;20950;-72
2021/08/18 03:33:44;;;;;;;24.87;12.95;;;;;;;20.48;66.61;99796.86;1723062;81;21818;-72
2021/08/18 03:36:11;;;;;;;17.02;12.00;;;;;;;20.49;66.76;99812.75;1716480;82;20935;-71
2021/08/18 03:38:37;;;;;;;21.35;11.43;;;;;;;20.51;66.98;99816.05;1708525;84;20950;-71
2021/08/18 03:41:04;;;;;;;18.90;11.48;;;;;;;20.55;67.13;99807.91;1711227;82;21093;-71
2021/08/18 03:43:31;;;;;;;20.57;11.10;;;;;;;20.61;67.24;99810.32;1716753;82;20953;-71
2021/08/18 03:45:58;;;;;;;20.48;11.25;;;;;;;20.65;67.24;99812.08;1731398;82;22533;-72
2021/08/18 03:48:24;;;;;;;17.90;10.10;;;;;;;20.70;67.34;99804.27;1732213;82;21507;-71
2021/08/18 03:50:51;;;;;;;16.10;9.20;;;;;;;20.76;67.44;99805.64;1734376;82;21015;-71
2021/08/18 03:53:17;;;;;;;17.48;9.23;;;;;;;20.81;67.61;99805.02;1732778;81;21425;-72
2021/08/18 03:55:44;;;;;;;16.15;9.28;;;;;;;20.82;67.77;99804.81;1724685;82;21381;-72
2021/08/18 03:58:10;;;;;;;12.30;8.75;;;;;;;20.86;67.83;99806.59;1725496;82;21859;-72
2021/08/18 04:00:37;;;;;;;13.30;8.23;;;;;;;20.90;67.88;99806.48;1726307;82;21395;-72
2021/08/18 04:03:03;;;;;;;15.15;8.48;;;;;;;20.96;67.91;99800.32;1728660;81;20958;-70
2021/08/18 04:05:30;;;;;;;12.43;8.05;;;;;;;21.00;67.86;99802.90;1693127;83;21474;-72
2021/08/18 04:07:57;;;;;;;11.80;7.78;;;;;;;21.04;67.93;99808.20;1733431;82;20981;-71
2021/08/18 04:10:24;;;;;;;15.93;7.25;;;;;;;21.07;67.98;99807.77;1729220;82;21773;-71
2021/08/18 04:12:55;;;;;;;10.95;6.65;;;;;;;21.10;68.07;99796.62;1735770;81;21083;-71
2021/08/18 04:15:38;;;;;;;12.95;6.20;;;;;;;21.14;68.16;99798.40;1749684;80;21082;-71
2021/08/18 04:18:07;;;;;;;11.57;6.60;;;;;;;21.19;68.29;99795.09;1731493;81;21004;-72
2021/08/18 04:20:34;;;;;;;9.75;6.35;;;;;;;21.19;68.29;99795.09;1732189;82;21013;-71
2021/08/18 04:23:02;;;;;;;11.73;5.72;;;;;;;21.24;68.19;99800.17;1697940;83;22696;-71
2021/08/18 04:25:31;;;;;;;11.22;5.90;;;;;;;21.30;68.08;99799.36;1733833;82;20937;-73
2021/08/18 04:27:57;;;;;;;10.48;5.33;;;;;;;21.37;67.94;99801.55;1729092;82;21030;-71
2021/08/18 04:30:24;;;;;;;12.30;5.15;;;;;;;21.46;67.85;99800.83;1734329;82;21049;-71
2021/08/18 04:32:50;;;;;;;9.28;4.75;;;;;;;21.51;67.71;99795.64;1720602;82;20954;-74
2021/08/18 04:35:17;;;;;;;9.70;4.85;;;;;;;21.57;67.51;99790.80;1727934;82;22457;-75
2021/08/18 04:37:44;;;;;;;8.33;4.70;;;;;;;21.64;67.33;99791.62;1730751;81;21487;-73
2021/08/18 04:40:12;;;;;;;12.88;4.72;;;;;;;21.69;67.08;99790.47;1735315;81;21360;-73
2021/08/18 04:42:45;;;;;;;8.98;4.55;;;;;;;21.76;66.98;99788.30;1696959;84;21493;-72
2021/08/18 04:45:13;;;;;;;8.38;4.72;;;;;;;21.83;66.82;99794.51;1699069;84;21014;-72
2021/08/18 04:47:39;;;;;;;7.28;4.33;;;;;;;21.88;66.46;99793.34;1689954;84;22809;-73
2021/08/18 04:50:10;;;;;;;6.15;4.70;;;;;;;21.92;66.07;99796.77;1720437;81;20934;-74
2021/08/18 04:52:36;;;;;;;8.25;4.55;;;;;;;21.96;65.79;99797.16;1695054;82;21031;-73
2021/08/18 04:55:04;;;;;;;9.48;4.80;;;;;;;21.98;65.61;99795.91;1725661;81;21086;-73
2021/08/18 04:57:32;;;;;;;7.28;4.50;;;;;;;22.04;65.45;99802.84;1725312;83;21049;-74
2021/08/18 04:59:59;;;;;;;7.33;5.17;;;;;;;22.13;65.23;99801.62;1728909;82;22244;-73
2021/08/18 05:02:26;;;;;;;7.70;4.72;;;;;;;22.14;65.09;99809.47;1732426;82;20989;-73
2021/08/18 05:04:54;;;;;;;7.33;4.80;;;;;;;22.20;65.04;99807.81;1733902;82;20977;-73
2021/08/18 05:07:21;;;;;;;8.18;4.47;;;;;;;22.25;64.80;99807.47;1731838;82;20965;-73
2021/08/18 05:09:47;;;;;;;11.90;4.87;;;;;;;22.27;64.54;99804.56;1734310;82;20961;-73
2021/08/18 05:12:15;;;;;;;8.68;4.60;;;;;;;22.28;64.52;99807.56;1732506;82;21012;-73
2021/08/18 05:14:43;;;;;;;6.22;4.40;;;;;;;22.34;64.33;99822.05;1713518;82;21032;-73
2021/08/18 05:17:11;;;;;;;7.90;4.47;;;;;;;22.38;64.30;99824.60;1712246;83;20945;-73
2021/08/18 05:19:39;;;;;;;8.05;4.47;;;;;;;22.41;64.14;99828.23;1746933;81;20964;-73
2021/08/18 05:22:05;;;;;;;9.48;4.47;;;;;;;22.46;63.90;99837.31;1745751;80;21103;-73
2021/08/18 05:24:32;;;;;;;7.03;4.50;;;;;;;22.50;63.67;99843.94;1735553;81;22573;-72
2021/08/18 05:26:59;;;;;;;7.70;4.55;;;;;;;22.50;63.44;99841.25;1736930;81;21107;-73
2021/08/18 05:29:25;;;;;;;11.22;4.78;;;;;;;22.50;63.41;99841.77;1765174;81;20981;-72
2021/08/18 05:31:52;;;;;;;11.63;5.05;;;;;;;22.54;63.40;99841.64;1740640;81;21482;-73
2021/08/18 05:34:19;;;;;;;8.53;4.85;;;;;;;22.59;63.27;99834.28;1733022;82;20945;-73
2021/08/18 05:36:45;;;;;;;10.00;5.42;;;;;;;22.64;63.20;99834.45;1726927;81;22190;-71
2021/08/18 05:39:12;;;;;;;7.80;4.90;;;;;;;22.68;63.15;99834.33;1677807;85;20941;-70
2021/08/18 05:41:38;;;;;;;7.55;5.10;;;;;;;22.72;63.03;99826.97;1725256;82;20948;-70
2021/08/18 05:44:04;;;;;;;11.18;5.55;;;;;;;22.77;62.95;99828.48;1734670;81;21044;-70
2021/08/18 05:46:31;;;;;;;7.42;4.85;;;;;;;22.81;62.69;99836.45;1747509;81;20962;-70
2021/08/18 05:48:58;;;;;;;10.70;5.42;;;;;;;22.87;62.50;99838.00;1732467;82;21829;-70
2021/08/18 05:51:25;;;;;;;12.90;5.58;;;;;;;22.88;62.44;99832.95;1734851;82;20994;-70
2021/08/18 05:53:52;;;;;;;8.73;5.50;;;;;;;22.87;62.43;99833.44;1743999;80;20948;-70
2021/08/18 05:56:18;;;;;;;8.68;5.22;;;;;;;22.90;62.44;99832.20;1733708;82;21454;-70
2021/08/18 05:58:45;;;;;;;6.40;5.15;;;;;;;22.92;62.45;99830.12;1732584;82;21501;-70
2021/08/18 06:01:11;;;;;;;13.25;5.75;;;;;;;22.98;62.40;99833.30;1733988;82;22932;-71
2021/08/18 06:03:38;;;;;;;13.15;5.92;;;;;;;23.02;62.33;99829.12;1739494;82;21385;-70
2021/08/18 06:06:04;;;;;;;11.88;5.80;;;;;;;23.03;61.85;99833.47;1739398;82;21491;-70
2021/08/18 06:08:31;;;;;;;8.45;5.62;;;;;;;23.09;61.95;99833.97;1739627;82;21614;-69
2021/08/18 06:10:59;;;;;;;8.53;5.28;;;;;;;23.10;61.80;99827.53;1746793;81;21027;-71
2021/08/18 06:13:26;;;;;;;12.13;5.85;;;;;;;23.16;61.75;99823.95;1712418;82;21882;-71
2021/08/18 06:15:52;;;;;;;9.88;5.50;;;;;;;23.17;61.68;99825.63;1737935;82;21090;-71
2021/08/18 06:18:19;;;;;;;8.20;5.90;;;;;;;23.27;61.48;99825.97;1732605;82;20994;-70
2021/08/18 06:20:47;;;;;;;8.55;5.33;;;;;;;23.35;61.35;99825.69;1732420;82;21382;-70
2021/08/18 06:23:20;;;;;;;10.95;5.28;;;;;;;23.42;61.15;99825.13;1734107;82;21530;-69
2021/08/18 06:25:42;;;;;;;8.95;5.35;;;;;;;23.54;61.19;99819.84;1727946;82;21852;-69
2021/08/18 06:28:09;;;;;;;7.83;5.37;;;;;;;23.61;60.99;99827.39;1730017;82;20985;-70
2021/08/18 06:30:35;;;;;;;13.93;5.65;;;;;;;23.69;60.84;99831.69;1730809;82;21038;-70
2021/08/18 06:33:02;;;;;;;10.30;5.33;;;;;;;23.73;60.69;99827.50;1742108;81;21523;-69
2021/08/18 06:35:28;;;;;;;10.20;6.15;;;;;;;23.78;60.29;99824.98;1751921;81;21362;-68
2021/08/18 06:37:55;;;;;;;9.25;5.37;;;;;;;23.78;59.99;99829.02;1738999;82;21746;-69
2021/08/18 06:40:22;;;;;;;8.75;5.60;;;;;;;23.82;59.88;99830.22;1732849;82;21005;-70
2021/08/18 06:42:50;;;;;;;10.20;5.92;;;;;;;23.86;59.85;99818.48;1746392;81;20945;-68
2021/08/18 06:45:17;;;;;;;7.37;6.00;;;;;;;23.87;59.93;99812.86;1739740;81;20952;-70
2021/08/18 06:47:44;;;;;;;10.23;6.20;;;;;;;23.95;59.64;99809.06;1728277;82;21031;-72
2021/08/18 06:50:12;;;;;;;14.15;6.03;;;;;;;24.05;59.55;99811.25;1730160;82;21497;-74
2021/08/18 06:52:39;;;;;;;8.68;6.20;;;;;;;24.14;59.41;99808.03;1735932;81;21474;-71
2021/08/18 06:55:07;;;;;;;8.15;6.20;;;;;;;24.20;58.97;99812.52;1732100;81;21449;-74
2021/08/18 06:57:34;;;;;;;9.05;5.80;;;;;;;24.25;59.08;99816.73;1723660;81;21032;-75
2021/08/18 07:00:02;;;;;;;10.85;5.80;;;;;;;24.28;59.19;99800.60;1731654;82;21076;-73
2021/08/18 07:02:29;;;;;;;19.87;6.78;;;;;;;24.34;59.25;99805.14;1737377;82;21883;-73
2021/08/18 07:04:56;;;;;;;10.23;6.40;;;;;;;24.42;59.03;99800.80;1738237;81;21007;-72
2021/08/18 07:07:22;;;;;;;8.93;6.25;;;;;;;24.49;58.48;99804.74;1734534;82;21048;-72
2021/08/18 07:09:50;;;;;;;8.23;6.25;;;;;;;24.48;58.57;99802.57;1732024;81;21073;-73
2021/08/18 07:12:17;;;;;;;8.93;6.40;;;;;;;24.61;58.62;99804.80;1737278;81;20994;-71
2021/08/18 07:14:43;;;;;;;10.35;6.37;;;;;;;24.75;58.09;99800.89;1738224;82;21749;-72
2021/08/18 07:17:10;;;;;;;11.25;6.00;;;;;;;24.80;57.88;99791.56;1739003;82;20946;-71
2021/08/18 07:19:36;;;;;;;10.93;6.53;;;;;;;24.89;57.63;99794.77;1739292;82;21046;-71
2021/08/18 07:22:04;;;;;;;13.80;7.35;;;;;;;24.96;57.73;99788.75;1736208;82;21493;-72
2021/08/18 07:24:34;;;;;;;14.80;7.17;;;;;;;25.04;57.21;99780.36;1732001;82;20962;-72
2021/08/18 07:27:03;;;;;;;12.88;6.58;;;;;;;25.02;56.61;99780.59;1737048;82;21885;-72
2021/08/18 07:29:30;;;;;;;12.30;6.78;;;;;;;24.99;56.66;99781.53;1733485;81;21025;-74
2021/08/18 07:31:56;;;;;;;14.98;6.72;;;;;;;25.02;56.85;99787.87;1736925;80;21024;-73
2021/08/18 07:34:22;;;;;;;11.50;7.15;;;;;;;25.02;56.31;99781.95;1737218;82;21279;-74
2021/08/18 07:36:49;;;;;;;10.15;7.05;;;;;;;24.96;56.02;99780.65;1737157;82;21126;-74
2021/08/18 07:39:15;;;;;;;9.30;7.28;;;;;;;24.98;56.28;99790.16;1735440;82;22131;-74
2021/08/18 07:41:41;;;;;;;11.83;7.45;;;;;;;25.05;56.09;99790.93;1730268;82;20999;-74
2021/08/18 07:44:08;;;;;;;12.65;7.47;;;;;;;25.18;56.04;99785.84;1730734;82;21031;-74
2021/08/18 07:46:35;;;;;;;13.65;7.20;;;;;;;25.25;55.55;99785.22;1731960;82;21176;-72
2021/08/18 07:49:02;;;;;;;11.43;6.97;;;;;;;25.32;55.36;99781.89;1732149;82;21011;-72
2021/08/18 07:51:28;;;;;;;9.75;6.75;;;;;;;25.34;54.98;99778.42;1732175;82;21810;-72
2021/08/18 07:53:54;;;;;;;12.28;7.87;;;;;;;25.40;55.34;99781.56;1731975;81;20999;-73
2021/08/18 07:56:21;;;;;;;10.30;7.03;;;;;;;25.49;55.07;99779.87;1731886;82;21078;-73
2021/08/18 07:58:47;;;;;;;9.48;6.53;;;;;;;25.56;54.98;99780.56;1730990;82;20950;-73
2021/08/18 08:01:13;;;;;;;13.80;7.08;;;;;;;25.67;55.02;99777.03;1732615;82;21013;-73
2021/08/18 08:03:40;;;;;;;16.80;7.40;;;;;;;25.86;55.05;99771.83;1728051;82;22171;-73
2021/08/18 08:06:07;;;;;;;11.70;7.45;;;;;;;26.05;54.38;99772.52;1727841;82;20954;-72
2021/08/18 08:08:35;;;;;;;13.43;7.25;;;;;;;26.19;53.87;99776.62;1727845;82;21468;-71
2021/08/18 08:11:02;;;;;;;13.40;6.65;;;;;;;26.28;53.61;99777.09;1727961;82;21434;-72
2021/08/18 08:13:28;;;;;;;11.70;7.65;;;;;;;26.40;53.21;99773.02;1729406;82;21314;-72
2021/08/18 08:15:54;;;;;;;14.55;7.50;;;;;;;26.39;52.63;99774.09;1732683;82;22837;-71
2021/08/18 08:18:21;;;;;;;14.23;7.45;;;;;;;26.38;52.77;99769.20;1732552;82;20934;-72
2021/08/18 08:20:48;;;;;;;18.40;7.90;;;;;;;26.42;52.31;99765.47;1732669;82;21413;-73
2021/08/18 08:23:15;;;;;;;10.98;7.70;;;;;;;26.48;52.22;99761.81;1732804;82;21651;-74
2021/08/18 08:25:42;;;;;;;11.65;7.25;;;;;;;26.59;52.14;99763.66;1706985;82;21372;-74
2021/08/18 08:28:08;;;;;;;10.45;7.10;;;;;;;26.64;52.28;99761.06;1735972;82;22817;-72
2021/08/18 08:30:35;;;;;;;14.43;7.33;;;;;;;26.75;52.10;99764.78;1735283;82;21017;-72
2021/08/18 08:33:02;;;;;;;10.95;7.45;;;;;;;26.80;51.52;99763.50;1731205;82;20968;-72
2021/08/18 08:35:29;;;;;;;9.35;6.85;;;;;;;26.85;51.25;99765.50;1739484;82;21026;-72
2021/08/18 08:37:56;;;;;;;12.33;6.90;;;;;;;26.89;51.33;99761.23;1739434;82;21582;-72
2021/08/18 08:40:22;;;;;;;12.00;7.10;;;;;;;26.88;51.60;99760.41;1739343;82;21778;-71
2021/08/18 08:42:50;;;;;;;11.80;6.85;;;;;;;26.85;51.34;99766.86;1739392;82;21372;-71
2021/08/18 08:45:16;;;;;;;16.90;7.05;;;;;;;26.84;51.80;99766.03;1664563;82;20985;-73
2021/08/18 08:47:42;;;;;;;12.73;6.90;;;;;;;26.90;51.63;99757.45;1738479;82;21061;-72
2021/08/18 08:50:11;;;;;;;10.28;6.87;;;;;;;26.93;51.71;99751.03;1715150;82;21460;-73
2021/08/18 08:52:39;;;;;;;9.93;6.83;;;;;;;27.09;51.68;99748.06;1753302;81;20941;-73
2021/08/18 08:55:07;;;;;;;12.43;7.47;;;;;;;27.25;50.40;99749.97;1742201;80;21005;-73
2021/08/18 08:57:50;;;;;;;9.88;7.05;;;;;;;27.30;50.43;99747.86;1735679;82;21016;-74
2021/08/18 09:00:17;;;;;;;18.07;7.53;;;;;;;27.38;50.63;99748.81;1728077;83;21275;-72
2021/08/18 09:02:44;;;;;;;14.40;7.62;;;;;;;27.45;50.26;99755.44;1727849;82;21477;-73
2021/08/18 09:05:10;;;;;;;13.13;7.53;;;;;;;27.52;50.39;99755.56;1731227;82;22177;-72
2021/08/18 09:07:37;;;;;;;20.50;8.13;;;;;;;27.62;49.96;99753.00;1732931;82;21437;-73
2021/08/18 09:10:06;;;;;;;20.02;8.05;;;;;;;27.80;49.95;99758.73;1732882;82;21491;-72
2021/08/18 09:12:39;;;;;;;9.43;7.28;;;;;;;27.98;48.97;99759.48;1732562;82;21045;-73
2021/08/18 09:15:18;;;;;;;10.40;7.28;;;;;;;28.06;48.36;99749.55;1732477;82;21009;-74
2021/08/18 09:17:45;;;;;;;12.03;7.50;;;;;;;28.13;48.20;99747.48;1732685;82;21879;-74
2021/08/18 09:20:16;;;;;;;11.08;7.22;;;;;;;28.31;48.39;99751.28;1732502;82;20942;-74
2021/08/18 09:22:49;;;;;;;12.73;7.70;;;;;;;28.47;47.74;99752.26;1732162;82;20938;-75
2021/08/18 09:25:35;;;;;;;;;;;;;;;28.55;47.80;99750.99;1735167;82;21081;-75
2021/08/18 09:28:08;;;;;;;14.58;7.45;;;;;;;28.59;47.51;99748.89;1732523;82;20152;-74
2021/08/18 09:30:38;;;;;;;17.17;7.83;;;;;;;28.63;47.04;99754.08;1701269;83;21001;-75
2021/08/18 09:33:17;;;;;;;13.00;7.37;;;;;;;28.65;46.81;99757.36;1739486;82;21449;-74
2021/08/18 09:35:46;;;;;;;12.60;8.20;;;;;;;28.72;46.59;99751.19;1739366;82;21091;-74
2021/08/18 09:38:15;;;;;;;16.17;7.60;;;;;;;28.77;46.03;99745.82;1736302;82;21034;-73
2021/08/18 09:40:50;;;;;;;15.53;8.65;;;;;;;28.77;46.13;99750.44;1732383;82;20955;-74
2021/08/18 09:43:22;;;;;;;11.97;7.97;;;;;;;28.84;45.91;99748.85;1732396;82;21821;-72
2021/08/18 09:46:01;;;;;;;14.28;7.83;;;;;;;28.92;45.81;99747.88;1732182;82;20958;-77
2021/08/18 09:48:31;;;;;;;11.05;7.55;;;;;;;29.03;45.81;99746.89;1736404;82;21017;-75
2021/08/18 09:51:06;;;;;;;12.10;7.67;;;;;;;29.20;45.95;99743.23;1739134;82;21401;-73
2021/08/18 09:53:39;;;;;;;11.53;7.42;;;;;;;29.35;45.66;99742.84;1709387;82;21020;-72
2021/08/18 09:56:14;;;;;;;10.45;6.58;;;;;;;29.45;44.69;99746.17;1724210;82;22531;-72
2021/08/18 09:58:50;;;;;;;14.28;7.53;;;;;;;29.47;44.08;99738.56;1732469;82;21087;-72
2021/08/18 10:01:18;;;;;;;10.23;6.67;;;;;;;29.42;44.89;99738.51;1732563;82;21099;-73
2021/08/18 10:03:47;;;;;;;9.03;6.87;;;;;;;29.48;44.20;99740.73;1711992;82;21056;-77
2021/08/18 10:06:16;;;;;;;14.78;7.30;;;;;;;29.46;44.12;99746.45;1732755;82;21001;-74
2021/08/18 10:08:45;;;;;;;12.03;7.12;;;;;;;29.42;44.78;99743.13;1732389;82;21862;-74
2021/08/18 10:11:15;;;;;;;10.25;6.90;;;;;;;29.51;44.60;99738.88;1732737;82;21024;-73
2021/08/18 10:13:44;;;;;;;14.78;7.05;;;;;;;29.50;44.53;99742.69;1732475;82;21045;-74
2021/08/18 10:16:13;;;;;;;13.83;7.12;;;;;;;29.54;45.08;99738.38;1732567;82;20990;-73
2021/08/18 10:18:51;;;;;;;9.93;6.10;;;;;;;29.61;44.24;99724.80;1731126;82;20958;-72
2021/08/18 10:21:31;;;;;;;9.98;7.40;;;;;;;29.75;44.72;99731.16;1707798;83;21863;-72
2021/08/18 10:24:05;;;;;;;16.00;7.00;;;;;;;29.90;44.42;99726.59;1727896;82;20839;-72
2021/08/18 10:26:37;;;;;;;12.30;7.20;;;;;;;30.03;44.20;99729.95;1729395;82;21005;-72
2021/08/18 10:29:19;;;;;;;14.83;7.67;;;;;;;30.18;43.71;99723.21;1729047;82;21037;-73
2021/08/18 10:31:53;;;;;;;15.08;7.22;;;;;;;30.31;43.47;99720.56;1732691;82;21056;-72
2021/08/18 10:34:43;;;;;;;9.53;6.37;;;;;;;30.46;42.83;99725.49;1733409;82;22401;-73
2021/08/18 10:37:22;;;;;;;12.23;7.08;;;;;;;30.45;42.26;99711.59;1732792;82;20938;-73
2021/08/18 10:39:55;;;;;;;18.02;7.30;;;;;;;30.45;42.26;99711.59;1733385;82;20963;-73
2021/08/18 10:42:42;;;;;;;11.15;7.83;;;;;;;30.51;42.18;99704.81;1732673;82;21470;-73
2021/08/18 10:45:27;;;;;;;13.13;7.72;;;;;;;30.71;42.12;99700.23;1730172;82;20950;-74
2021/08/18 10:47:56;;;;;;;16.80;7.20;;;;;;;30.71;42.12;99700.23;1738467;82;21857;-74
2021/08/18 10:50:28;;;;;;;10.08;7.22;;;;;;;30.89;41.73;99690.72;1744516;81;20953;-73
2021/08/18 10:52:55;;;;;;;14.18;7.42;;;;;;;30.96;41.70;99684.42;1732050;81;20983;-75
2021/08/18 10:55:29;;;;;;;9.20;6.83;;;;;;;31.10;42.28;99679.80;1729601;82;21604;-73
2021/08/18 10:58:02;;;;;;;9.98;6.90;;;;;;;31.34;42.29;99682.25;1729412;83;20984;-74
2021/08/18 11:00:37;;;;;;;8.88;6.08;;;;;;;31.55;41.17;99666.64;1729662;82;21866;-72
2021/08/18 11:03:08;;;;;;;12.45;6.62;;;;;;;31.67;40.28;99667.18;1729377;82;21022;-73
2021/08/18 11:05:45;;;;;;;15.23;6.50;;;;;;;31.56;40.65;99666.94;1729310;82;21047;-73
2021/08/18 11:08:20;;;;;;;11.08;6.15;;;;;;;31.52;40.69;99675.39;1729301;83;21539;-73
2021/08/18 11:10:57;;;;;;;11.93;6.70;;;;;;;31.55;41.00;99663.91;1729273;82;20984;-74
2021/08/18 11:13:50;;;;;;;10.43;5.90;;;;;;;31.58;41.17;99668.29;1729268;82;21837;-73
2021/08/18 11:16:24;;;;;;;10.35;6.10;;;;;;;31.69;41.83;99670.44;1730890;82;21494;-75
2021/08/18 11:19:01;;;;;;;8.30;5.83;;;;;;;31.85;40.11;99667.97;1731933;82;20968;-75
2021/08/18 11:21:31;;;;;;;7.65;5.28;;;;;;;31.77;40.39;99671.27;1731786;82;20944;-75
2021/08/18 11:24:08;;;;;;;6.80;5.20;;;;;;;31.84;40.75;99669.59;1732109;82;20964;-76
2021/08/18 11:26:38;;;;;;;8.23;5.03;;;;;;;31.65;41.08;99676.17;1728903;82;21856;-75
2021/08/18 11:29:13;;;;;;;9.05;5.58;;;;;;;31.40;42.11;99681.16;1704645;82;21051;-77
2021/08/18 11:31:49;;;;;;;8.35;5.45;;;;;;;31.28;42.30;99688.28;1684896;84;21397;-76